Bigfork, Minnesota
Current Conditions -  °F | °C
As of 11:13 AM on Thursday 27 Nov 2014 (Local Time) from KFOZ Reporting Station
Clear Clear  
Wind Chill:   Ceiling: Unl
Heat Index:   Visibility: 10mi
Dew Point: -8°   Wind: 3mph
Humidity: 72%   Direction: 180°S
Pressure: 30.41"   Gusts: NA
Location:  47.74°N, 93.65°W
Report Text: KFOZ 271713Z AUTO 18003KT 10SM CLR M18/M22 A3041 RMK AO2
Loading
Personal Weather Stations






























Interactive Weather Map New forecast layout! Learn more

10-Day Weather Forecast

Advertisements
Track Severe Weather on mobile